KAUS - Austin/Bergstrom Int, TX, US

Issued at 2332 UTC 05 Dec 2019
Updated at 0341 UTC 06 Dec 2019
Potential Impact None Slight Moderate High
Time0253Z 06/04Z 06/05Z 06/06Z 06/07Z 06/08Z 06/09Z 06/10Z 06/11Z 06/12Z 06/13Z 06/14Z 06/15Z 06/16Z>>
Type OBS PRVL PRVL PRVL PRVL PRVL PRVL PRVL PRVL PRVL PRVL PRVL PRVL PRVL
VIS 9 >6 5 5 5 5 5 >6 >6 >6 >6 >6 >6 >6
CIG 250 250 250 250 250 250 250 -- -- -- -- -- -- --
Cover BKN BKN BKN BKN BKN BKN BKN SCT SCT SCT FEW FEW FEW FEW
FltCat VFR VFR MVFR MVFR MVFR MVFR MVFR VFR VFR VFR VFR VFR VFR VFR
WX -- -- BR BR BR BR BR -- -- -- -- -- -- --
WDir 190 190 200 200 200 200 200 300 300 300 350 350 350 350
WSpd 3 12 5 5 5 5 5 7 7 7 14 14 14 14
WGst -- -- -- -- -- -- -- -- -- -- -- -- -- --
Raw TAF
KAUS 052332Z 0600/0706 19012KT P6SM BKN250
  FM060500 20005KT 5SM BR SCT004 BKN250
  FM061000 30007KT P6SM SCT250
  FM061300 35014KT P6SM FEW250
  FM062200 34010KT P6SM FEW250
  FM070300 35007KT P6SM SKC


Raw METAR
KAUS 060253Z 19003KT 9SM BKN250 16/14 A2998 RMK AO2 SLP152 T01560144 53014
KAUS 060153Z 00000KT 10SM BKN250 17/14 A2997 RMK AO2 SLP146 T01670144
KAUS 060053Z 00000KT 10SM FEW200 SCT250 19/16 A2995 RMK AO2 SLP139 T01890156

METAR Board
Radar Display
Forecast Discussion
For situational awareness. Not to be used for flight planning purposes.